createdAt,value
2022-08-18T00:00:14.370Z,95221.47
2022-08-18T00:03:01.026Z,95226.91
2022-08-18T00:05:36.298Z,95232.84
2022-08-18T00:08:10.705Z,95222.44
2022-08-18T00:10:43.427Z,95230.28
2022-08-18T00:13:12.751Z,95222.91
2022-08-18T00:15:49.196Z,95229.63
2022-08-18T00:18:19.358Z,95219.72
2022-08-18T00:20:50.301Z,95227.72
2022-08-18T00:23:19.950Z,95232.38
2022-08-18T00:25:50.263Z,95234.16
2022-08-18T00:28:19.749Z,95229.63
2022-08-18T00:30:53.898Z,95241.16
2022-08-18T00:33:24.096Z,95237.34
2022-08-18T00:35:55.408Z,95235.75
2022-08-18T00:38:25.643Z,95242.97
2022-08-18T00:40:57.594Z,95238.47
2022-08-18T00:43:37.216Z,95246.16
2022-08-18T00:46:09.923Z,95245.69
2022-08-18T00:48:39.377Z,95231.28
2022-08-18T00:51:16.917Z,95221.16
2022-08-18T00:53:52.171Z,95213.78
2022-08-18T00:56:27.774Z,95221.47
2022-08-18T00:59:04.231Z,95232.56
2022-08-18T01:01:35.772Z,95241.38
2022-08-18T01:04:15.412Z,95245.97
2022-08-18T01:06:53.589Z,95253.34
2022-08-18T01:09:23.582Z,95258.13
2022-08-18T01:11:53.280Z,95254.81
2022-08-18T01:14:23.142Z,95253.34
2022-08-18T01:17:10.740Z,95248.56
2022-08-18T01:19:58.315Z,95246.31
2022-08-18T01:22:37.381Z,95250.47
2022-08-18T01:25:28.393Z,95249.19
2022-08-18T01:28:00.734Z,95241.50
2022-08-18T01:30:33.031Z,95229.66
2022-08-18T01:33:02.493Z,95231.91
2022-08-18T01:35:41.513Z,95235.75
2022-08-18T01:38:11.534Z,95240.22
2022-08-18T01:41:22.377Z,95244.25
2022-08-18T01:43:34.455Z,95238.78
2022-08-18T01:46:05.446Z,95241.03
2022-08-18T01:48:38.025Z,95222.78
2022-08-18T01:51:13.166Z,95234.94
2022-08-18T01:53:42.889Z,95235.25
2022-08-18T01:56:17.740Z,95227.56
2022-08-18T01:58:48.657Z,95217.78
2022-08-18T02:01:18.480Z,95225.00
2022-08-18T02:04:06.095Z,95224.81
2022-08-18T02:06:47.785Z,95236.00
2022-08-18T02:09:23.808Z,95230.44
2022-08-18T02:11:56.206Z,95220.03
2022-08-18T02:14:27.397Z,95222.41
2022-08-18T02:17:01.808Z,95224.31
2022-08-18T02:19:36.690Z,95222.56
2022-08-18T02:22:09.393Z,95214.22
2022-08-18T02:24:39.581Z,95225.38
2022-08-18T02:27:12.881Z,95206.19
2022-08-18T02:29:43.368Z,95197.41
2022-08-18T02:32:13.001Z,95191.81
2022-08-18T02:34:42.829Z,95198.69
2022-08-18T02:37:15.324Z,95200.91
2022-08-18T02:39:45.715Z,95204.59
2022-08-18T02:42:19.416Z,95218.19
2022-08-18T02:44:48.934Z,95217.50
2022-08-18T02:47:21.320Z,95206.78
2022-08-18T02:49:51.105Z,95205.50
2022-08-18T02:52:20.590Z,95198.94
2022-08-18T02:54:50.362Z,95196.09
2022-08-18T02:57:23.681Z,95196.22
2022-08-18T02:59:53.394Z,95197.16
2022-08-18T03:02:23.366Z,95196.19
2022-08-18T03:04:52.843Z,95186.94
2022-08-18T03:07:22.356Z,95192.81
2022-08-18T03:09:52.109Z,95183.38
2022-08-18T03:12:22.972Z,95188.00
2022-08-18T03:14:52.493Z,95191.34
2022-08-18T03:17:22.077Z,95195.97
2022-08-18T03:19:51.563Z,95200.59
2022-08-18T03:22:28.411Z,95194.25
2022-08-18T03:24:59.712Z,95188.31
2022-08-18T03:27:30.796Z,95187.03
2022-08-18T03:30:00.661Z,95182.09
2022-08-18T03:32:30.518Z,95172.66
2022-08-18T03:34:59.973Z,95171.53
2022-08-18T03:37:29.457Z,95168.31
2022-08-18T03:39:58.961Z,95164.00
2022-08-18T03:42:29.827Z,95163.81
2022-08-18T03:44:59.509Z,95161.75
2022-08-18T03:47:28.969Z,95153.91
2022-08-18T03:49:59.444Z,95143.06
2022-08-18T03:52:28.988Z,95151.81
2022-08-18T03:54:59.049Z,95163.44
2022-08-18T03:57:33.178Z,95163.59
2022-08-18T04:00:12.043Z,95156.56
2022-08-18T04:02:41.762Z,95151.94
2022-08-18T04:05:12.863Z,95143.00
2022-08-18T04:07:44.480Z,95147.44
2022-08-18T04:10:19.467Z,95158.91
2022-08-18T04:12:51.296Z,95146.13
2022-08-18T04:15:21.053Z,95137.19
2022-08-18T04:18:03.080Z,95123.94
2022-08-18T04:20:33.902Z,95130.47
2022-08-18T04:23:04.134Z,95123.75
2022-08-18T04:25:33.721Z,95121.97
2022-08-18T04:28:04.880Z,95135.41
2022-08-18T04:30:34.475Z,95141.72
2022-08-18T04:33:06.294Z,95146.66
2022-08-18T04:35:35.857Z,95153.97
2022-08-18T04:38:05.389Z,95157.81
2022-08-18T04:40:34.906Z,95160.53
2022-08-18T04:43:05.834Z,95149.06
2022-08-18T04:45:36.333Z,95147.13
2022-08-18T04:48:06.821Z,95151.47
2022-08-18T04:50:38.111Z,95145.94
2022-08-18T04:53:25.533Z,95150.28
2022-08-18T04:55:57.610Z,95154.78
2022-08-18T04:58:28.471Z,95160.38
2022-08-18T05:01:01.841Z,95165.50
2022-08-18T05:03:31.386Z,95170.94
2022-08-18T05:06:05.316Z,95175.41
2022-08-18T05:08:37.270Z,95182.59
2022-08-18T05:11:07.269Z,95184.88
2022-08-18T05:13:38.988Z,95174.88
2022-08-18T05:16:11.884Z,95162.13
2022-08-18T05:18:46.821Z,95168.06
2022-08-18T05:21:16.628Z,95168.91
2022-08-18T05:23:49.453Z,95184.56
2022-08-18T05:26:20.929Z,95187.81
2022-08-18T05:28:55.683Z,95202.75
2022-08-18T05:31:41.112Z,95206.28
2022-08-18T05:34:10.921Z,95203.91
2022-08-18T05:37:23.573Z,95217.16
2022-08-18T05:40:00.177Z,95217.97
2022-08-18T05:42:36.699Z,95213.34
2022-08-18T05:45:14.306Z,95212.38
2022-08-18T05:47:44.665Z,95207.13
2022-08-18T05:50:18.532Z,95209.19
2022-08-18T05:52:56.723Z,95212.38
2022-08-18T05:55:52.462Z,95210.94
2022-08-18T05:58:33.100Z,95218.13
2022-08-18T06:01:10.069Z,95211.75
2022-08-18T06:03:50.473Z,95219.75
2022-08-18T06:06:24.836Z,95224.72
2022-08-18T06:09:05.676Z,95225.50
2022-08-18T06:11:35.298Z,95227.59
2022-08-18T06:14:05.073Z,95228.84
2022-08-18T06:16:56.006Z,95235.88
2022-08-18T06:19:47.234Z,95232.69
2022-08-18T06:22:31.941Z,95238.28
2022-08-18T06:25:13.518Z,95237.16
2022-08-18T06:27:58.574Z,95251.41
2022-08-18T06:30:47.156Z,95246.44
2022-08-18T06:33:46.402Z,95239.13
2022-08-18T06:36:29.331Z,95233.34
2022-08-18T06:39:06.235Z,95234.16
2022-08-18T06:41:43.484Z,95217.50
2022-08-18T06:44:24.155Z,95225.50
2022-08-18T06:47:04.144Z,95228.22
2022-08-18T06:49:48.732Z,95219.28
2022-08-18T06:52:30.457Z,95221.66
2022-08-18T06:55:03.356Z,95234.63
2022-08-18T06:57:38.110Z,95242.59
2022-08-18T07:00:26.875Z,95239.56
2022-08-18T07:03:10.499Z,95229.63
2022-08-18T07:06:05.434Z,95216.19
2022-08-18T07:08:40.141Z,95214.25
2022-08-18T07:11:20.669Z,95212.31
2022-08-18T07:14:09.418Z,95211.94
2022-08-18T07:16:58.287Z,95207.94
2022-08-18T07:19:32.959Z,95201.19
2022-08-18T07:22:11.081Z,95192.19
2022-08-18T07:24:44.262Z,95191.31
2022-08-18T07:27:19.513Z,95186.63
2022-08-18T07:30:07.609Z,95178.72
2022-08-18T07:32:45.904Z,95172.38
2022-08-18T07:35:23.868Z,95181.75
2022-08-18T07:38:18.620Z,95190.00
2022-08-18T07:40:57.665Z,95192.31
2022-08-18T07:43:42.334Z,95192.53
2022-08-18T07:46:19.045Z,95189.03
2022-08-18T07:48:48.602Z,95184.34
2022-08-18T07:51:33.854Z,95189.88
2022-08-18T07:54:47.163Z,95194.72
2022-08-18T07:57:20.830Z,95187.66
2022-08-18T08:00:05.612Z,95195.47
2022-08-18T08:03:01.035Z,95200.94
2022-08-18T08:05:48.448Z,95208.47
2022-08-18T08:08:31.455Z,95205.19
2022-08-18T08:11:22.243Z,95212.59
2022-08-18T08:14:24.267Z,95229.03
2022-08-18T08:17:11.794Z,95233.38
2022-08-18T08:20:08.407Z,95220.63
2022-08-18T08:22:51.023Z,95215.63
2022-08-18T08:25:45.629Z,95219.84
2022-08-18T08:28:35.089Z,95212.50
2022-08-18T08:31:35.555Z,95215.56
2022-08-18T08:34:15.578Z,95211.91
2022-08-18T08:36:49.161Z,95204.41
2022-08-18T08:39:26.449Z,95190.97
2022-08-18T08:42:31.904Z,95187.31
2022-08-18T08:45:00.716Z,95178.88
2022-08-18T08:47:38.256Z,95182.16
2022-08-18T08:50:14.457Z,95187.75
2022-08-18T08:52:49.013Z,95194.94
2022-08-18T08:55:26.385Z,95205.06
2022-08-18T08:58:18.360Z,95200.81
2022-08-18T09:00:51.708Z,95175.47
2022-08-18T09:03:41.436Z,95158.75
2022-08-18T09:06:30.170Z,95176.00
2022-08-18T09:09:25.182Z,95170.91
2022-08-18T09:12:45.807Z,95174.84
2022-08-18T09:15:56.449Z,95158.06
2022-08-18T09:18:52.542Z,95163.50
2022-08-18T09:21:38.626Z,95167.31
2022-08-18T09:24:26.063Z,95161.66
2022-08-18T09:27:26.525Z,95155.66
2022-08-18T09:29:59.356Z,95166.31
2022-08-18T09:32:58.113Z,95163.66
2022-08-18T09:35:51.990Z,95173.84
2022-08-18T09:38:48.670Z,95161.03
2022-08-18T09:41:35.150Z,95150.75
2022-08-18T09:47:02.645Z,95139.91
2022-08-18T09:49:51.085Z,95146.13
2022-08-18T09:50:37.282Z,95145.84
2022-08-18T09:52:59.157Z,95147.63
2022-08-18T09:56:05.113Z,95139.97
2022-08-18T09:59:02.043Z,95148.72
2022-08-18T10:01:42.532Z,95149.09
2022-08-18T10:04:33.733Z,95151.50
2022-08-18T10:07:38.848Z,95149.25
2022-08-18T10:10:58.791Z,95161.19
2022-08-18T10:13:25.125Z,95165.22
2022-08-18T10:16:14.213Z,95175.22
2022-08-18T10:19:05.932Z,95162.09
2022-08-18T10:22:08.047Z,95153.75
2022-08-18T10:24:47.994Z,95156.31
2022-08-18T10:27:50.247Z,95159.94
2022-08-18T10:31:10.192Z,95151.50
2022-08-18T10:34:23.353Z,95152.47
2022-08-18T10:36:58.987Z,95155.75
2022-08-18T10:39:50.080Z,95150.84
2022-08-18T10:42:31.297Z,95146.22
2022-08-18T10:45:22.134Z,95152.16
2022-08-18T10:48:17.335Z,95137.03
2022-08-18T10:50:59.260Z,95131.53
2022-08-18T10:53:39.787Z,95113.47
2022-08-18T10:56:34.240Z,95112.50
2022-08-18T10:59:28.642Z,95119.72
2022-08-18T11:02:37.038Z,95120.88
2022-08-18T11:05:11.330Z,95109.28
2022-08-18T11:07:44.875Z,95112.81
2022-08-18T11:10:31.895Z,95118.38
2022-08-18T11:13:16.230Z,95104.41
2022-08-18T11:16:02.960Z,95102.88
2022-08-18T11:18:43.489Z,95094.41
2022-08-18T11:21:41.761Z,95088.28
2022-08-18T11:24:28.928Z,95068.50
2022-08-18T11:27:02.894Z,95058.75
2022-08-18T11:29:38.275Z,95056.16
2022-08-18T11:32:18.019Z,95059.44
2022-08-18T11:34:53.838Z,95059.81
2022-08-18T11:37:49.260Z,95051.25
2022-08-18T11:46:33.390Z,95046.81
2022-08-18T11:49:24.032Z,95038.69
2022-08-18T11:52:05.629Z,95030.34
2022-08-18T11:54:50.972Z,95003.50
2022-08-18T11:57:46.619Z,94995.38
2022-08-18T12:03:49.546Z,94977.09
2022-08-18T12:06:27.915Z,94974.84
2022-08-18T12:09:04.990Z,94971.00
2022-08-18T12:17:21.586Z,94950.50
2022-08-18T12:19:52.923Z,94958.41
2022-08-18T12:22:27.370Z,94962.75
2022-08-18T12:24:57.039Z,94965.13
2022-08-18T12:27:32.156Z,94960.78
2022-08-18T12:30:03.298Z,94964.75
2022-08-18T12:32:46.787Z,94972.25
2022-08-18T12:35:22.590Z,94978.19
2022-08-18T12:38:11.244Z,94970.28
2022-08-18T12:40:43.916Z,94975.81
2022-08-18T12:43:13.686Z,94967.84
2022-08-18T12:45:43.766Z,94967.47
2022-08-18T12:48:13.438Z,94959.16
2022-08-18T12:50:54.711Z,94975.00
2022-08-18T12:56:25.909Z,94981.75
2022-08-18T12:58:55.835Z,94991.63
2022-08-18T13:01:26.701Z,94991.63
2022-08-18T13:04:12.576Z,94987.66
2022-08-18T13:07:00.646Z,94979.72
2022-08-18T13:09:52.752Z,94982.09
2022-08-18T13:12:25.474Z,94992.00
2022-08-18T13:14:55.831Z,94984.88
2022-08-18T13:17:33.841Z,94984.44
2022-08-18T13:20:09.975Z,94980.09
2022-08-18T13:22:41.631Z,94976.91
2022-08-18T13:25:33.237Z,94960.34
2022-08-18T13:28:06.821Z,94954.44
2022-08-18T13:30:36.557Z,94940.25
2022-08-18T13:33:35.263Z,94929.19
2022-08-18T13:35:57.722Z,94927.22
2022-08-18T13:38:29.439Z,94926.41
2022-08-18T13:41:03.523Z,94922.03
2022-08-18T13:43:42.026Z,94926.38
2022-08-18T13:46:15.889Z,94922.03
2022-08-18T13:48:46.983Z,94911.72
2022-08-18T13:51:24.980Z,94910.91
2022-08-18T13:54:17.724Z,94920.69
2022-08-18T13:56:51.329Z,94919.88
2022-08-18T13:59:23.037Z,94910.72
2022-08-18T14:01:53.949Z,94902.78
2022-08-18T14:04:27.805Z,94907.44
2022-08-18T14:06:59.042Z,94907.75
2022-08-18T14:09:36.091Z,94898.66
2022-08-18T14:12:22.972Z,94895.06
2022-08-18T14:14:56.911Z,94898.19
2022-08-18T14:17:28.116Z,94887.16
2022-08-18T14:20:21.565Z,94885.19
2022-08-18T14:23:11.772Z,94883.59
2022-08-18T14:26:00.439Z,94877.66
2022-08-18T14:28:31.734Z,94877.66
2022-08-18T14:31:04.798Z,94872.13
2022-08-18T14:33:50.295Z,94870.13
2022-08-18T14:36:30.008Z,94868.97
2022-08-18T14:39:00.448Z,94861.81
2022-08-18T14:41:32.680Z,94863.75
2022-08-18T14:44:13.627Z,94865.69
2022-08-18T14:46:51.865Z,94865.25
2022-08-18T14:49:29.113Z,94871.84
2022-08-18T14:52:00.818Z,94868.22
2022-08-18T14:54:31.404Z,94866.22
2022-08-18T14:57:05.381Z,94866.91
2022-08-18T14:59:37.681Z,94871.56
2022-08-18T15:02:13.429Z,94871.53
2022-08-18T15:04:53.129Z,94868.69
2022-08-18T15:07:26.627Z,94869.00
2022-08-18T15:10:15.226Z,94862.28
2022-08-18T15:12:47.857Z,94874.84
2022-08-18T15:15:19.395Z,94868.06
2022-08-18T15:17:53.138Z,94874.69
2022-08-18T15:20:29.620Z,94869.47
2022-08-18T15:23:22.773Z,94865.00
2022-08-18T15:25:58.873Z,94864.63
2022-08-18T15:28:30.337Z,94861.03
2022-08-18T15:33:51.075Z,94869.56
2022-08-18T15:36:29.041Z,94870.31
2022-08-18T15:38:59.940Z,94867.50
2022-08-18T15:41:44.280Z,94871.38
2022-08-18T15:44:19.261Z,94872.56
2022-08-18T15:46:51.300Z,94868.63
2022-08-18T15:49:23.900Z,94864.28
2022-08-18T15:51:53.396Z,94872.53
2022-08-18T15:54:23.039Z,94868.19
2022-08-18T15:56:58.469Z,94861.09
2022-08-18T15:59:40.018Z,94864.59
2022-08-18T16:02:11.782Z,94863.03
2022-08-18T16:04:48.579Z,94849.56
2022-08-18T16:07:39.909Z,94854.28
2022-08-18T16:10:10.388Z,94845.97
2022-08-18T16:12:45.800Z,94838.41
2022-08-18T16:15:21.454Z,94829.75
2022-08-18T16:17:54.506Z,94835.22
2022-08-18T16:20:24.988Z,94835.13
2022-08-18T16:22:58.665Z,94830.28
2022-08-18T16:25:29.149Z,94826.63
2022-08-18T16:28:01.383Z,94824.97
2022-08-18T16:30:33.584Z,94826.38
2022-08-18T16:33:05.565Z,94830.19
2022-08-18T16:35:37.288Z,94826.53
2022-08-18T16:38:09.434Z,94834.66
2022-08-18T16:40:40.303Z,94836.06
2022-08-18T16:43:10.400Z,94829.69
2022-08-18T16:45:42.868Z,94836.94
2022-08-18T16:48:16.646Z,94842.59
2022-08-18T16:50:47.138Z,94840.03
2022-08-18T16:53:17.061Z,94841.69
2022-08-18T16:55:46.912Z,94856.38
2022-08-18T16:58:34.701Z,94857.31
2022-08-18T17:01:23.525Z,94859.56
2022-08-18T17:04:20.408Z,94869.09
2022-08-18T17:06:51.451Z,94873.91
2022-08-18T17:09:22.841Z,94873.00
2022-08-18T17:11:52.985Z,94888.13
2022-08-18T17:14:27.681Z,94894.41
2022-08-18T17:17:00.516Z,94911.38
2022-08-18T17:19:35.092Z,94922.97
2022-08-18T17:22:08.100Z,94935.28
2022-08-18T17:24:38.245Z,94939.53
2022-08-18T17:27:26.246Z,94935.00
2022-08-18T17:30:06.844Z,94935.94
2022-08-18T17:32:48.416Z,94954.97
2022-08-18T17:35:28.867Z,94960.16
2022-08-18T17:38:08.435Z,94966.97
2022-08-18T17:40:46.432Z,94972.25
2022-08-18T17:43:21.880Z,94959.88
2022-08-18T17:45:58.877Z,94978.97
2022-08-18T17:48:37.237Z,94983.78
2022-08-18T17:51:32.729Z,94982.59
2022-08-18T17:54:19.011Z,94983.56
2022-08-18T17:56:54.708Z,95002.28
2022-08-18T17:59:46.144Z,95002.53
2022-08-18T18:02:29.570Z,95001.38
2022-08-18T18:05:05.356Z,94999.88
2022-08-18T18:07:40.805Z,95003.94
2022-08-18T18:10:16.974Z,95007.34
2022-08-18T18:12:46.504Z,94998.91
2022-08-18T18:15:32.121Z,94999.91
2022-08-18T18:18:24.812Z,95006.63
2022-08-18T18:21:08.686Z,95002.50
2022-08-18T18:23:43.420Z,94998.66
2022-08-18T18:26:29.417Z,95008.75
2022-08-18T18:29:29.090Z,95005.91
2022-08-18T18:32:04.104Z,95005.78
2022-08-18T18:34:39.725Z,95004.06
2022-08-18T18:37:29.499Z,95017.13
2022-08-18T18:40:03.094Z,95013.00
2022-08-18T18:42:36.973Z,95017.19
2022-08-18T18:45:21.765Z,95013.38
2022-08-18T18:48:05.455Z,95015.97
2022-08-18T18:50:55.624Z,95008.41
2022-08-18T18:53:45.456Z,95010.03
2022-08-18T18:56:23.922Z,95013.88
2022-08-18T18:59:14.077Z,95008.75
2022-08-18T19:02:00.173Z,95007.94
2022-08-18T19:04:38.550Z,95006.69
2022-08-18T19:07:21.513Z,95008.91
2022-08-18T19:10:00.224Z,95021.56
2022-08-18T19:12:35.403Z,95025.09
2022-08-18T19:15:14.601Z,95040.78
2022-08-18T19:17:50.990Z,95047.81
2022-08-18T19:20:28.165Z,95064.34
2022-08-18T19:23:05.808Z,95080.19
2022-08-18T19:25:46.808Z,95089.81
2022-08-18T19:29:12.112Z,95095.09
2022-08-18T19:31:32.753Z,95106.91
2022-08-18T19:34:13.551Z,95101.00
2022-08-18T19:36:56.129Z,95112.53
2022-08-18T19:39:36.712Z,95108.53
2022-08-18T19:42:18.622Z,95086.94
2022-08-18T19:45:15.471Z,95075.25
2022-08-18T19:47:55.576Z,95085.00
2022-08-18T19:50:33.614Z,95074.28
2022-08-18T19:53:31.160Z,95066.91
2022-08-18T19:56:32.701Z,95072.53
2022-08-18T20:00:14.514Z,95082.75
2022-08-18T20:03:48.643Z,95084.19
2022-08-18T20:06:36.028Z,95082.59
2022-08-18T20:09:47.517Z,95082.44
2022-08-18T20:12:48.108Z,95089.31
2022-08-18T20:15:24.620Z,95092.03
2022-08-18T20:18:22.758Z,95093.78
2022-08-18T20:21:46.343Z,95093.63
2022-08-18T20:24:48.382Z,95084.16
2022-08-18T20:27:35.858Z,95082.13
2022-08-18T20:30:33.937Z,95075.41
2022-08-18T20:33:34.217Z,95061.47
2022-08-18T20:36:27.049Z,95067.72
2022-08-18T20:38:59.487Z,95075.72
2022-08-18T20:41:50.596Z,95081.97
2022-08-18T20:44:58.736Z,95091.41
2022-08-18T20:48:13.839Z,95087.88
2022-08-18T20:51:11.268Z,95087.56
2022-08-18T20:54:13.646Z,95096.19
2022-08-18T20:56:50.695Z,95100.19
2022-08-18T20:59:30.584Z,95103.88
2022-08-18T21:02:07.274Z,95108.19
2022-08-18T21:04:52.982Z,95107.53
2022-08-18T21:07:36.979Z,95108.66
2022-08-18T21:10:21.280Z,95109.44
2022-08-18T21:12:54.100Z,95113.75
2022-08-18T21:15:29.083Z,95126.91
2022-08-18T21:18:02.070Z,95130.56
2022-08-18T21:20:35.166Z,95134.09
2022-08-18T21:23:10.530Z,95136.34
2022-08-18T21:25:52.545Z,95139.53
2022-08-18T21:28:24.232Z,95138.94
2022-08-18T21:31:42.965Z,95136.66
2022-08-18T21:33:52.737Z,95126.25
2022-08-18T21:36:31.697Z,95133.13
2022-08-18T21:39:12.168Z,95119.53
2022-08-18T21:41:48.173Z,95128.03
2022-08-18T21:44:24.661Z,95120.19
2022-08-18T21:47:07.061Z,95111.41
2022-08-18T21:49:37.684Z,95117.16
2022-08-18T21:52:08.551Z,95111.25
2022-08-18T21:54:41.564Z,95106.13
2022-08-18T21:57:26.285Z,95117.28
2022-08-18T22:00:23.736Z,95115.38
2022-08-18T22:03:20.422Z,95121.81
2022-08-18T22:06:00.943Z,95128.16
2022-08-18T22:08:49.771Z,95130.94
2022-08-18T22:12:01.467Z,95133.81
2022-08-18T22:14:55.215Z,95137.50
2022-08-18T22:17:33.829Z,95139.88
2022-08-18T22:20:46.390Z,95145.97
2022-08-18T22:23:56.719Z,95127.72
2022-08-18T22:26:30.657Z,95134.28
2022-08-18T22:29:13.227Z,95144.06
2022-08-18T22:31:47.047Z,95133.50
2022-08-18T22:34:27.169Z,95121.50
2022-08-18T22:37:02.646Z,95129.66
2022-08-18T22:39:39.158Z,95116.06
2022-08-18T22:42:10.617Z,95113.66
2022-08-18T22:44:40.785Z,95105.50
2022-08-18T22:47:11.092Z,95090.47
2022-08-18T22:49:45.268Z,95085.50
2022-08-18T22:52:29.889Z,95077.97
2022-08-18T22:55:07.033Z,95061.03
2022-08-18T22:57:37.417Z,95057.03
2022-08-18T23:00:12.922Z,95054.78
2022-08-18T23:02:43.385Z,95044.91
2022-08-18T23:05:13.329Z,95037.19
2022-08-18T23:07:43.277Z,95042.81
2022-08-18T23:10:16.432Z,95040.44
2022-08-18T23:12:48.725Z,95043.00
2022-08-18T23:15:20.291Z,95037.72
2022-08-18T23:17:49.783Z,95025.09
2022-08-18T23:20:20.016Z,95018.38
2022-08-18T23:22:49.644Z,95005.56
2022-08-18T23:25:20.529Z,95000.13
2022-08-18T23:27:52.623Z,95011.66
2022-08-18T23:30:22.533Z,95006.53
2022-08-18T23:32:52.175Z,95015.66
2022-08-18T23:35:21.867Z,95022.53
2022-08-18T23:37:51.321Z,95027.66
2022-08-18T23:40:22.770Z,95029.25
2022-08-18T23:42:52.400Z,95034.69
2022-08-18T23:45:22.204Z,95039.00
2022-08-18T23:47:52.793Z,95062.34
2022-08-18T23:50:26.509Z,95067.78
2022-08-18T23:52:58.221Z,95079.31
2022-08-18T23:55:29.404Z,95093.69
2022-08-18T23:57:58.881Z,95098.66
